Aérodrome :
LOGIN :

S'inscrire | Disclaimer

   EN    FR    IT 

 










Légende :    VFR   VFR Marginal   IFR   IFR Intensif   IFR Très Intensif
Visi : 
Plafond : 
>= 8 km
>= 3000ft
5 à 8 km
1000 à 3000 ft
1500m à 5 km
500 à 1000 ft
800 à 1500m
200 à 500 ft
< 800m
< 200 ft
Symboles :   Orages  Brouillard  Fortes neiges  Fortes précipitations  Vent > 20 kt
SIGMETs :   Divers  Orages  Givrage  Turbulence  Onde Orograph.  Cendres Volcan.






- Altitude de l'aérodrome : 779 ft
- Code IATA : CMF


LFLB - Chambery / Aix-Les-Bains

DERNIER METAR :
  • 240800Z AUTO VRB01KT 9999 FEW003 SCT010 BKN046 12/11 Q1022 NOSIG

METARs EXPIRÉS :
  • 240730Z AUTO 00000KT 9999 BKN045 OVC066 11/11 Q1021 NOSIG
  • 240700Z AUTO 00000KT 9999 -RA FEW045 BKN074 OVC084 11/11 Q1021 TEMPO 2000 BR BKN006
  • 240630Z AUTO 12003KT 9999 FEW049 OVC082 11/11 Q1021 TEMPO 2000 BR BKN006
  • 240600Z AUTO 16003KT 9000 FEW054 OVC084 10/10 Q1021 TEMPO 3500 -RA BR BKN011
  • 240530Z AUTO 15002KT 9999 BKN056 OVC086 11/10 Q1021 TEMPO 3500 -RA BR BKN011

TAF TAF LFLB
Valide du 24 à 09h jusqu'au 25 à 09h UTC


240800Z 2409/2509 VRB03KT 9999 BKN020 BKN070
PROB30
TEMPO 2409/2411 BKN009 BKN070
BECMG 2411/2413 NSC
BECMG 2416/2419 16008KT
PROB30
TEMPO 2504/2508 0600 FG



MET'MAP, la Météo Aéronautique d'un coup d'oeil ! - Copyright ORBIFLY Décembre 2007 - Disclaimer

ORBIFLY MET'MAP TEAM :

Programmation & Développement : Alexandra Zaïnal
Sur une idée originale de : Baudouin d'Aumeries
Assistance à la programmation : Marc-Olivier Méhu
Soutien technique & logistique : Manuel Goepfert

Contact : metmap@orbifly.com




SOURCES & CREDITS :

   NOAA